Time;durP1;ratioP1;P1;durP2;ratioP2;P2;SDS_P1;SDS_P2;PMS_P1;PMS_P2;Temp;Humidity;BMP_temperature;BMP_pressure;BME280_temperature;BME280_humidity;BME280_pressure;Samples;Min_cycle;Max_cycle;Signal;HPM_P1;HPM_P2
2022/11/04 00:01:43;;;;;;;8.20;4.43;;;;;;;;;;5023386;28;20068;-72
2022/11/04 00:04:10;;;;;;;9.32;3.60;;;;;;;;;;5015647;28;20504;-72
2022/11/04 00:06:37;;;;;;;11.90;3.95;;;;;;;;;;5019142;28;20095;-72
2022/11/04 00:09:04;;;;;;;6.80;3.40;;;;;;;;;;5022750;28;20021;-72
2022/11/04 00:14:15;;;;;;;8.57;3.45;;;;;;;;;;5019746;28;20163;-72
2022/11/04 00:19:27;;;;;;;15.55;4.25;;;;;;;;;;5020184;28;20036;-75
2022/11/04 00:29:54;;;;;;;9.20;3.65;;;;;;;;;;5021208;28;20036;-74
2022/11/04 00:35:06;;;;;;;6.65;3.38;;;;;;;;;;5018568;28;20044;-73
2022/11/04 00:37:35;;;;;;;11.77;3.75;;;;;;;;;;5016314;28;20048;-73
2022/11/04 00:40:01;;;;;;;5.60;3.28;;;;;;;;;;5030356;28;20096;-73
2022/11/04 00:42:27;;;;;;;6.72;3.00;;;;;;;;;;5016207;28;20021;-73
2022/11/04 00:44:53;;;;;;;8.77;4.03;;;;;;;;;;5024136;28;20025;-73
2022/11/04 00:47:19;;;;;;;9.10;3.60;;;;;;;;;;5021966;28;20037;-74
2022/11/04 00:49:46;;;;;;;7.57;3.20;;;;;;;;;;5027999;28;20096;-82
2022/11/04 00:52:12;;;;;;;7.18;3.20;;;;;;;;;;5022313;28;20160;-77
2022/11/04 00:54:38;;;;;;;11.63;4.05;;;;;;;;;;5022657;28;20044;-73
2022/11/04 00:57:04;;;;;;;9.32;3.58;;;;;;;;;;5026139;28;20024;-72
2022/11/04 00:59:30;;;;;;;11.45;3.85;;;;;;;;;;5033116;28;20639;-73
2022/11/04 01:01:56;;;;;;;7.97;3.88;;;;;;;;;;5026034;28;20018;-73
2022/11/04 01:04:22;;;;;;;9.13;3.50;;;;;;;;;;5019090;28;20017;-73
2022/11/04 01:06:49;;;;;;;6.18;3.17;;;;;;;;;;5020148;28;20036;-72
2022/11/04 01:09:15;;;;;;;6.22;3.47;;;;;;;;;;5024353;28;20045;-73
2022/11/04 01:11:41;;;;;;;10.23;3.72;;;;;;;;;;5028566;28;20037;-73
2022/11/04 01:14:07;;;;;;;10.15;3.70;;;;;;;;;;5026732;28;20025;-73
2022/11/04 01:16:33;;;;;;;5.38;3.08;;;;;;;;;;5026058;28;20086;-73
2022/11/04 01:19:00;;;;;;;11.65;3.53;;;;;;;;;;5027693;28;20029;-73
2022/11/04 01:21:26;;;;;;;5.72;3.13;;;;;;;;;;5021343;28;20075;-75
2022/11/04 01:23:52;;;;;;;10.73;3.03;;;;;;;;;;5022876;28;20021;-73
2022/11/04 01:26:20;;;;;;;9.65;3.42;;;;;;;;;;5025288;28;20079;-73
2022/11/04 01:28:46;;;;;;;20.42;3.40;;;;;;;;;;5025930;28;20066;-73
2022/11/04 01:31:14;;;;;;;10.88;3.17;;;;;;;;;;5021849;28;20021;-73
2022/11/04 01:33:40;;;;;;;10.70;3.50;;;;;;;;;;5023530;28;20124;-73
2022/11/04 01:36:07;;;;;;;9.20;3.50;;;;;;;;;;5024217;28;20597;-73
2022/11/04 01:38:33;;;;;;;9.95;3.13;;;;;;;;;;5020536;28;20526;-73
2022/11/04 01:41:00;;;;;;;4.72;2.92;;;;;;;;;;5023559;28;20021;-73
2022/11/04 01:43:46;;;;;;;6.70;3.13;;;;;;;;;;5015695;28;20219;-73
2022/11/04 01:46:17;;;;;;;7.13;2.85;;;;;;;;;;5023659;28;20365;-73
2022/11/04 01:48:43;;;;;;;7.63;3.78;;;;;;;;;;5020882;28;20041;-80
2022/11/04 01:51:09;;;;;;;11.77;4.10;;;;;;;;;;5017057;28;20030;-79
2022/11/04 01:53:37;;;;;;;6.28;3.75;;;;;;;;;;5018219;28;20067;-77
2022/11/04 01:56:10;;;;;;;7.38;3.60;;;;;;;;;;5009885;28;20021;-73
2022/11/04 01:58:39;;;;;;;10.98;3.72;;;;;;;;;;5019044;28;20026;-73
2022/11/04 02:01:05;;;;;;;7.25;3.35;;;;;;;;;;5015680;28;20013;-74
2022/11/04 02:03:36;;;;;;;8.23;3.08;;;;;;;;;;5011925;28;20030;-73
2022/11/04 02:06:02;;;;;;;5.38;2.80;;;;;;;;;;5024210;28;20033;-74
2022/11/04 02:08:29;;;;;;;11.38;3.13;;;;;;;;;;5013733;28;20077;-73
2022/11/04 02:10:59;;;;;;;13.43;4.10;;;;;;;;;;5020543;28;20029;-73
2022/11/04 02:13:27;;;;;;;8.73;3.13;;;;;;;;;;5011883;28;20025;-73
2022/11/04 02:15:58;;;;;;;7.28;3.03;;;;;;;;;;5021088;28;20030;-74
2022/11/04 02:18:24;;;;;;;;;;;;;;;;;;5018846;28;20474;-73
2022/11/04 02:21:02;;;;;;;5.55;2.85;;;;;;;;;;5017598;28;19916;-74
2022/11/04 02:23:35;;;;;;;6.88;3.67;;;;;;;;;;5020808;28;20094;-73
2022/11/04 02:26:27;;;;;;;9.05;3.15;;;;;;;;;;5021446;28;20087;-72
2022/11/04 02:29:08;;;;;;;11.50;3.47;;;;;;;;;;5020124;28;20232;-73
2022/11/04 02:31:42;;;;;;;16.20;3.00;;;;;;;;;;5010306;28;20155;-73
2022/11/04 02:34:09;;;;;;;9.98;3.20;;;;;;;;;;5017077;28;20250;-73
2022/11/04 02:39:25;;;;;;;7.00;2.67;;;;;;;;;;4986166;27;20434;-72
2022/11/04 02:42:00;;;;;;;6.75;2.78;;;;;;;;;;4979984;28;20030;-72
2022/11/04 02:44:31;;;;;;;5.13;2.80;;;;;;;;;;4988720;28;20533;-75
2022/11/04 02:47:04;;;;;;;9.03;3.07;;;;;;;;;;4977046;28;20046;-72
2022/11/04 02:49:39;;;;;;;10.98;2.83;;;;;;;;;;4985678;28;20061;-72
2022/11/04 02:52:09;;;;;;;7.50;2.72;;;;;;;;;;4985039;28;20033;-73
2022/11/04 02:54:42;;;;;;;8.07;2.70;;;;;;;;;;4980821;28;20030;-73
2022/11/04 02:57:11;;;;;;;8.93;2.33;;;;;;;;;;4984441;28;20030;-72
2022/11/04 03:00:12;;;;;;;6.93;2.38;;;;;;;;;;4977869;28;20414;-72
2022/11/04 03:02:47;;;;;;;10.30;2.83;;;;;;;;;;5058075;28;20029;-72
2022/11/04 03:05:17;;;;;;;8.80;2.70;;;;;;;;;;4985875;28;20084;-72
2022/11/04 03:07:44;;;;;;;10.65;2.97;;;;;;;;;;4986065;28;20393;-76
2022/11/04 03:10:23;;;;;;;10.73;3.38;;;;;;;;;;4980369;28;20439;-73
2022/11/04 03:12:53;;;;;;;10.35;3.00;;;;;;;;;;4978246;28;20034;-72
2022/11/04 03:15:22;;;;;;;8.38;3.08;;;;;;;;;;4984083;28;20029;-72
2022/11/04 03:17:57;;;;;;;6.65;2.83;;;;;;;;;;4979402;28;20053;-72
2022/11/04 03:20:26;;;;;;;9.88;3.35;;;;;;;;;;4981227;28;20043;-75
2022/11/04 03:22:58;;;;;;;10.68;3.72;;;;;;;;;;4978056;28;20081;-73
2022/11/04 03:25:26;;;;;;;13.68;3.15;;;;;;;;;;4980704;28;20053;-73
2022/11/04 03:28:05;;;;;;;11.02;2.72;;;;;;;;;;4981436;28;20029;-74
2022/11/04 03:30:38;;;;;;;11.23;3.10;;;;;;;;;;4985743;28;20014;-72
2022/11/04 03:33:04;;;;;;;9.25;3.03;;;;;;;;;;4986391;28;20178;-71
2022/11/04 03:35:31;;;;;;;10.60;3.08;;;;;;;;;;4980112;28;20113;-72
2022/11/04 03:37:57;;;;;;;9.02;3.35;;;;;;;;;;4980186;28;20590;-72
2022/11/04 03:40:24;;;;;;;7.10;3.03;;;;;;;;;;4982630;28;20023;-73
2022/11/04 03:42:59;;;;;;;8.75;2.80;;;;;;;;;;4975694;28;20551;-73
2022/11/04 03:45:25;;;;;;;7.93;2.97;;;;;;;;;;4984574;28;20019;-72
2022/11/04 03:47:52;;;;;;;6.25;2.60;;;;;;;;;;4984219;28;20030;-73
2022/11/04 03:50:18;;;;;;;8.50;3.10;;;;;;;;;;4969864;28;20049;-73
2022/11/04 03:52:44;;;;;;;10.05;3.03;;;;;;;;;;4958743;28;20179;-72
2022/11/04 03:55:11;;;;;;;11.30;2.45;;;;;;;;;;4966017;28;20029;-74
2022/11/04 03:57:41;;;;;;;11.07;2.85;;;;;;;;;;4968586;28;20042;-72
2022/11/04 04:00:12;;;;;;;6.32;2.80;;;;;;;;;;4965204;28;20051;-72
2022/11/04 04:02:46;;;;;;;7.40;2.88;;;;;;;;;;4966680;28;20027;-72
2022/11/04 04:05:31;;;;;;;6.25;3.08;;;;;;;;;;4964647;28;20092;-72
2022/11/04 04:08:08;;;;;;;7.18;3.17;;;;;;;;;;4963826;28;20039;-72
2022/11/04 04:10:50;;;;;;;9.75;3.13;;;;;;;;;;4967298;28;20026;-72
2022/11/04 04:13:18;;;;;;;7.32;3.33;;;;;;;;;;4961478;28;20034;-72
2022/11/04 04:15:51;;;;;;;5.68;2.78;;;;;;;;;;4970448;28;20023;-72
2022/11/04 04:18:21;;;;;;;8.45;3.30;;;;;;;;;;4964688;28;20034;-72
2022/11/04 04:20:48;;;;;;;6.05;2.72;;;;;;;;;;4962121;28;20030;-72
2022/11/04 04:28:53;;;;;;;6.80;2.67;;;;;;;;;;4965090;28;20046;-72
2022/11/04 04:34:05;;;;;;;8.05;3.20;;;;;;;;;;4968813;28;20421;-73
2022/11/04 04:36:34;;;;;;;9.48;3.33;;;;;;;;;;4964001;28;20113;-73
2022/11/04 04:47:20;;;;;;;8.30;3.60;;;;;;;;;;4963707;28;20046;-73
2022/11/04 04:49:50;;;;;;;7.18;3.22;;;;;;;;;;4963568;28;20041;-72
2022/11/04 04:52:16;;;;;;;18.15;3.85;;;;;;;;;;4961176;28;20068;-72
2022/11/04 04:54:43;;;;;;;7.82;3.13;;;;;;;;;;4961056;28;20072;-74
2022/11/04 04:57:10;;;;;;;9.43;3.55;;;;;;;;;;4965163;28;20080;-72
2022/11/04 04:59:36;;;;;;;7.88;3.20;;;;;;;;;;4958107;28;20034;-73
2022/11/04 05:02:02;;;;;;;11.20;3.53;;;;;;;;;;4961201;28;20482;-72
2022/11/04 05:04:29;;;;;;;8.02;2.65;;;;;;;;;;4962262;28;20041;-73
2022/11/04 05:06:55;;;;;;;8.75;3.00;;;;;;;;;;4961588;28;20019;-73
2022/11/04 05:09:21;;;;;;;6.85;2.92;;;;;;;;;;4961918;28;20023;-72
2022/11/04 05:11:47;;;;;;;8.85;2.60;;;;;;;;;;4961384;28;20022;-72
2022/11/04 05:14:13;;;;;;;7.03;2.30;;;;;;;;;;4962584;28;20035;-72
2022/11/04 05:16:40;;;;;;;6.97;2.50;;;;;;;;;;4971319;28;20022;-72
2022/11/04 05:19:06;;;;;;;8.85;2.22;;;;;;;;;;4964040;28;20031;-72
2022/11/04 05:21:32;;;;;;;10.05;2.63;;;;;;;;;;4956517;28;20023;-73
2022/11/04 05:23:58;;;;;;;14.35;4.10;;;;;;;;;;4964067;28;20027;-73
2022/11/04 05:26:24;;;;;;;31.83;9.57;;;;;;;;;;4965099;28;20023;-73
2022/11/04 05:28:50;;;;;;;8.48;2.65;;;;;;;;;;4967112;28;20075;-72
2022/11/04 05:31:17;;;;;;;9.45;2.53;;;;;;;;;;4960268;28;20764;-72
2022/11/04 05:33:43;;;;;;;10.02;2.53;;;;;;;;;;4965694;28;20025;-72
2022/11/04 05:36:10;;;;;;;11.05;2.70;;;;;;;;;;4961690;28;20102;-73
2022/11/04 05:38:37;;;;;;;6.68;2.30;;;;;;;;;;4965474;28;20124;-73
2022/11/04 05:41:03;;;;;;;10.20;2.35;;;;;;;;;;4962778;28;20398;-72
2022/11/04 05:43:30;;;;;;;7.88;2.63;;;;;;;;;;4966782;28;20875;-73
2022/11/04 05:45:58;;;;;;;6.85;2.45;;;;;;;;;;4969364;28;20059;-73
2022/11/04 05:48:24;;;;;;;21.25;4.25;;;;;;;;;;4963064;28;20602;-73
2022/11/04 05:50:50;;;;;;;9.77;2.60;;;;;;;;;;4959830;28;20022;-74
2022/11/04 05:53:16;;;;;;;7.47;2.72;;;;;;;;;;4963722;28;20110;-74
2022/11/04 05:55:43;;;;;;;9.48;2.38;;;;;;;;;;4957710;28;20019;-73
2022/11/04 05:58:09;;;;;;;6.30;2.90;;;;;;;;;;4959139;28;20039;-73
2022/11/04 06:00:35;;;;;;;4.53;2.58;;;;;;;;;;4959168;28;20026;-73
2022/11/04 06:03:01;;;;;;;11.85;2.67;;;;;;;;;;4958598;28;20030;-75
2022/11/04 06:05:28;;;;;;;7.90;2.75;;;;;;;;;;4960844;28;20030;-73
2022/11/04 06:07:55;;;;;;;7.68;2.58;;;;;;;;;;4960617;28;20026;-73
2022/11/04 06:10:21;;;;;;;6.85;2.70;;;;;;;;;;4959190;28;20084;-74
2022/11/04 06:12:47;;;;;;;5.00;2.60;;;;;;;;;;4963683;28;20049;-73
2022/11/04 06:15:14;;;;;;;4.85;2.42;;;;;;;;;;4968737;28;20072;-73
2022/11/04 06:17:40;;;;;;;4.40;2.67;;;;;;;;;;4956878;28;20031;-73
2022/11/04 06:20:06;;;;;;;8.32;2.97;;;;;;;;;;4958892;28;20105;-73
2022/11/04 06:22:33;;;;;;;8.25;2.75;;;;;;;;;;4964148;28;20058;-73
2022/11/04 06:24:59;;;;;;;8.75;2.60;;;;;;;;;;4986488;28;20018;-74
2022/11/04 06:27:25;;;;;;;10.02;3.03;;;;;;;;;;4961701;28;20071;-74
2022/11/04 06:29:52;;;;;;;11.20;2.90;;;;;;;;;;4960728;28;20506;-74
2022/11/04 06:32:18;;;;;;;11.75;2.85;;;;;;;;;;4964596;28;20030;-73
2022/11/04 06:34:45;;;;;;;7.80;2.47;;;;;;;;;;4956226;28;20023;-74
2022/11/04 06:37:11;;;;;;;11.25;2.35;;;;;;;;;;4952863;28;20031;-73
2022/11/04 06:39:37;;;;;;;10.68;2.53;;;;;;;;;;4955344;28;20038;-73
2022/11/04 06:42:04;;;;;;;7.13;2.65;;;;;;;;;;4965012;28;20022;-73
2022/11/04 06:44:32;;;;;;;6.20;2.47;;;;;;;;;;4959814;28;20037;-73
2022/11/04 06:46:58;;;;;;;6.65;3.13;;;;;;;;;;4962021;28;20030;-74
2022/11/04 06:49:24;;;;;;;5.68;2.50;;;;;;;;;;4960244;28;20027;-73
2022/11/04 06:51:51;;;;;;;8.13;2.55;;;;;;;;;;4961549;28;20099;-74
2022/11/04 06:54:17;;;;;;;7.00;2.65;;;;;;;;;;4954969;28;20442;-74
2022/11/04 06:56:44;;;;;;;6.72;2.80;;;;;;;;;;4962651;28;20041;-73
2022/11/04 06:59:17;;;;;;;6.78;2.90;;;;;;;;;;4965081;28;20523;-73
2022/11/04 07:01:44;;;;;;;5.07;2.45;;;;;;;;;;4965445;28;20786;-73
2022/11/04 07:04:10;;;;;;;8.15;2.50;;;;;;;;;;4963058;28;20029;-73
2022/11/04 07:06:36;;;;;;;7.88;2.67;;;;;;;;;;4963322;28;20054;-73
2022/11/04 07:09:02;;;;;;;4.25;2.53;;;;;;;;;;4961256;28;20027;-74
2022/11/04 07:11:30;;;;;;;7.32;2.88;;;;;;;;;;4965127;28;20447;-73
2022/11/04 07:13:56;;;;;;;5.22;3.15;;;;;;;;;;4961391;28;20513;-73
2022/11/04 07:16:22;;;;;;;6.65;2.40;;;;;;;;;;4964751;28;20635;-73
2022/11/04 07:18:50;;;;;;;5.07;2.70;;;;;;;;;;4963239;28;20108;-73
2022/11/04 07:21:16;;;;;;;8.15;2.47;;;;;;;;;;4965366;28;20080;-73
2022/11/04 07:23:43;;;;;;;6.60;2.63;;;;;;;;;;4963053;28;20474;-73
2022/11/04 07:26:10;;;;;;;7.15;2.40;;;;;;;;;;4962076;28;20030;-72
2022/11/04 07:28:36;;;;;;;8.55;2.67;;;;;;;;;;4970802;28;20184;-74
2022/11/04 07:31:03;;;;;;;9.85;2.60;;;;;;;;;;4968809;28;20023;-75
2022/11/04 07:33:29;;;;;;;5.65;2.80;;;;;;;;;;4965978;28;20030;-73
2022/11/04 07:35:55;;;;;;;7.13;2.88;;;;;;;;;;4970585;28;21025;-74
2022/11/04 07:38:22;;;;;;;7.38;2.42;;;;;;;;;;4965798;28;20135;-72
2022/11/04 07:40:48;;;;;;;8.82;3.08;;;;;;;;;;4979849;28;20013;-74
2022/11/04 07:43:15;;;;;;;12.05;2.78;;;;;;;;;;4962137;28;20553;-72
2022/11/04 07:45:41;;;;;;;2.85;2.20;;;;;;;;;;4965878;28;20015;-73
2022/11/04 07:48:07;;;;;;;7.32;2.25;;;;;;;;;;4968945;28;20026;-73
2022/11/04 07:50:34;;;;;;;6.90;2.45;;;;;;;;;;4963241;28;20137;-73
2022/11/04 07:53:00;;;;;;;9.68;3.53;;;;;;;;;;4967530;28;20023;-73
2022/11/04 07:55:27;;;;;;;7.28;2.38;;;;;;;;;;4967490;28;20022;-73
2022/11/04 07:57:54;;;;;;;6.93;2.95;;;;;;;;;;4968732;28;20095;-73
2022/11/04 08:00:20;;;;;;;5.88;2.60;;;;;;;;;;4965546;28;20034;-74
2022/11/04 08:02:47;;;;;;;10.73;2.95;;;;;;;;;;4974259;28;20045;-73
2022/11/04 08:05:13;;;;;;;6.85;2.85;;;;;;;;;;4964514;28;20084;-73
2022/11/04 08:07:40;;;;;;;8.65;3.10;;;;;;;;;;4971343;28;20023;-73
2022/11/04 08:10:06;;;;;;;7.90;3.08;;;;;;;;;;4969593;28;20316;-73
2022/11/04 08:12:33;;;;;;;8.65;3.33;;;;;;;;;;4965603;28;20026;-74
2022/11/04 08:14:59;;;;;;;7.15;3.22;;;;;;;;;;4973909;28;20105;-74
2022/11/04 08:17:25;;;;;;;7.07;3.13;;;;;;;;;;4965272;28;20027;-75
2022/11/04 08:19:51;;;;;;;9.00;3.55;;;;;;;;;;4967574;28;20030;-74
2022/11/04 08:22:18;;;;;;;5.75;3.30;;;;;;;;;;4964105;28;20023;-74
2022/11/04 08:24:46;;;;;;;7.75;3.65;;;;;;;;;;4958815;28;20027;-74
2022/11/04 08:27:12;;;;;;;13.90;3.63;;;;;;;;;;4969655;28;20177;-80
2022/11/04 08:29:38;;;;;;;8.07;3.03;;;;;;;;;;4969680;28;20042;-73
2022/11/04 08:32:05;;;;;;;5.68;3.20;;;;;;;;;;4980505;28;20019;-73
2022/11/04 08:34:31;;;;;;;9.52;3.40;;;;;;;;;;4956460;28;20031;-73
2022/11/04 08:36:59;;;;;;;8.82;3.22;;;;;;;;;;4967353;28;20019;-73
2022/11/04 08:39:25;;;;;;;11.07;3.63;;;;;;;;;;4965331;28;20047;-75
2022/11/04 08:41:52;;;;;;;9.60;3.53;;;;;;;;;;4972929;28;20269;-75
2022/11/04 08:44:19;;;;;;;7.32;3.00;;;;;;;;;;4973808;28;20038;-75
2022/11/04 08:46:46;;;;;;;8.15;3.60;;;;;;;;;;4962912;28;20046;-74
2022/11/04 08:49:12;;;;;;;14.68;3.75;;;;;;;;;;4967513;28;20023;-74
2022/11/04 08:51:40;;;;;;;9.07;3.20;;;;;;;;;;4963879;28;20409;-74
2022/11/04 08:54:06;;;;;;;6.00;2.67;;;;;;;;;;4966378;28;20080;-75
2022/11/04 08:56:34;;;;;;;12.80;3.72;;;;;;;;;;4969700;28;20023;-79
2022/11/04 08:59:01;;;;;;;13.70;3.60;;;;;;;;;;4964651;28;20569;-73
2022/11/04 09:01:28;;;;;;;10.57;4.07;;;;;;;;;;4961162;28;20023;-74
2022/11/04 09:03:54;;;;;;;12.93;4.00;;;;;;;;;;4961296;28;20207;-73
2022/11/04 09:06:31;;;;;;;7.25;3.38;;;;;;;;;;4969546;28;20079;-73
2022/11/04 09:09:02;;;;;;;10.50;3.72;;;;;;;;;;4960614;28;20030;-73
2022/11/04 09:11:29;;;;;;;9.65;4.30;;;;;;;;;;4964565;28;20025;-74
2022/11/04 09:13:56;;;;;;;9.48;4.00;;;;;;;;;;4961653;28;20030;-74
2022/11/04 09:16:22;;;;;;;8.50;4.22;;;;;;;;;;4966711;28;20418;-73
2022/11/04 09:18:48;;;;;;;11.52;4.75;;;;;;;;;;4963311;28;20047;-74
2022/11/04 09:21:14;;;;;;;15.55;4.47;;;;;;;;;;4961693;28;20037;-76
2022/11/04 09:23:41;;;;;;;8.30;4.18;;;;;;;;;;4965135;28;20029;-74
2022/11/04 09:26:11;;;;;;;14.70;4.47;;;;;;;;;;4953482;28;20026;-78
2022/11/04 09:28:39;;;;;;;14.97;4.83;;;;;;;;;;4966709;28;20019;-77
2022/11/04 09:31:15;;;;;;;12.30;4.53;;;;;;;;;;4971603;28;20092;-84
2022/11/04 09:33:42;;;;;;;9.15;4.10;;;;;;;;;;4963584;28;20027;-75
2022/11/04 09:36:09;;;;;;;27.65;5.07;;;;;;;;;;4975119;28;20046;-86
2022/11/04 09:38:36;;;;;;;11.73;4.32;;;;;;;;;;4962925;28;20402;-85
2022/11/04 09:41:08;;;;;;;12.40;4.43;;;;;;;;;;4978288;28;20117;-84
2022/11/04 09:43:37;;;;;;;9.65;3.92;;;;;;;;;;4973801;28;20026;-81
2022/11/04 09:46:03;;;;;;;14.93;4.45;;;;;;;;;;4968448;28;20049;-77
2022/11/04 09:48:29;;;;;;;14.73;4.63;;;;;;;;;;4970408;28;20069;-85
2022/11/04 09:50:57;;;;;;;16.42;4.18;;;;;;;;;;4971144;28;20019;-81
2022/11/04 09:53:32;;;;;;;12.85;4.47;;;;;;;;;;4970541;28;20022;-84
2022/11/04 09:56:01;;;;;;;8.68;3.70;;;;;;;;;;4970806;28;20019;-76
2022/11/04 09:58:28;;;;;;;11.95;3.83;;;;;;;;;;4961818;28;20062;-75
2022/11/04 10:01:01;;;;;;;11.43;3.80;;;;;;;;;;4964720;28;20027;-84
2022/11/04 10:03:37;;;;;;;12.10;3.80;;;;;;;;;;4969073;28;20018;-85
2022/11/04 10:06:03;;;;;;;12.07;3.45;;;;;;;;;;4974440;28;20023;-75
2022/11/04 10:09:01;;;;;;;7.88;3.72;;;;;;;;;;4973471;28;20023;-75
2022/11/04 10:11:46;;;;;;;11.43;3.45;;;;;;;;;;4953312;28;20037;-75
2022/11/04 10:14:31;;;;;;;7.07;3.00;;;;;;;;;;4962844;28;20063;-74
2022/11/04 10:17:02;;;;;;;7.57;3.47;;;;;;;;;;4969340;28;20024;-74
2022/11/04 10:19:55;;;;;;;11.93;3.42;;;;;;;;;;4960519;28;20044;-74
2022/11/04 10:22:22;;;;;;;11.65;3.50;;;;;;;;;;4955697;28;20122;-76
2022/11/04 10:25:11;;;;;;;10.23;3.40;;;;;;;;;;4957861;28;20029;-75
2022/11/04 10:27:39;;;;;;;10.82;3.85;;;;;;;;;;4972704;28;20039;-74
2022/11/04 10:30:07;;;;;;;10.60;4.00;;;;;;;;;;4960025;28;20011;-74
2022/11/04 10:32:44;;;;;;;14.43;4.38;;;;;;;;;;4961693;28;20111;-74
2022/11/04 10:35:11;;;;;;;8.93;4.07;;;;;;;;;;4979060;28;20357;-75
2022/11/04 10:37:37;;;;;;;9.43;3.40;;;;;;;;;;4977986;28;20693;-75
2022/11/04 10:40:16;;;;;;;12.80;3.90;;;;;;;;;;4967715;28;20033;-75
2022/11/04 10:42:43;;;;;;;7.57;4.00;;;;;;;;;;4965429;28;20015;-75
2022/11/04 10:45:13;;;;;;;10.70;3.83;;;;;;;;;;4966173;28;20042;-75
2022/11/04 10:47:47;;;;;;;9.48;3.90;;;;;;;;;;4965438;28;20015;-75
2022/11/04 10:50:13;;;;;;;8.88;3.88;;;;;;;;;;4958949;28;20038;-75
2022/11/04 10:52:40;;;;;;;10.38;3.72;;;;;;;;;;4965848;28;20034;-75
2022/11/04 10:55:25;;;;;;;11.88;4.65;;;;;;;;;;4964691;28;20034;-75
2022/11/04 10:57:54;;;;;;;13.02;4.43;;;;;;;;;;4961248;28;20727;-74
2022/11/04 11:00:34;;;;;;;11.13;4.55;;;;;;;;;;4970765;28;20110;-74
2022/11/04 11:03:00;;;;;;;14.00;3.55;;;;;;;;;;4960896;28;20073;-74
2022/11/04 11:05:28;;;;;;;8.13;4.20;;;;;;;;;;4968383;28;20840;-75
2022/11/04 11:07:56;;;;;;;14.02;4.40;;;;;;;;;;4966952;28;20034;-74
2022/11/04 11:10:25;;;;;;;11.82;4.75;;;;;;;;;;4969580;28;20105;-74
2022/11/04 11:12:57;;;;;;;9.85;4.78;;;;;;;;;;4955358;28;20031;-75
2022/11/04 11:15:26;;;;;;;11.13;4.70;;;;;;;;;;4964622;28;20140;-74
2022/11/04 11:17:57;;;;;;;12.90;4.22;;;;;;;;;;4962389;28;20050;-75
2022/11/04 11:20:25;;;;;;;8.57;4.32;;;;;;;;;;4959946;28;20026;-75
2022/11/04 11:22:53;;;;;;;13.02;5.00;;;;;;;;;;4968585;28;20018;-74
2022/11/04 11:25:25;;;;;;;8.88;4.18;;;;;;;;;;4965787;28;20027;-74
2022/11/04 11:27:52;;;;;;;7.90;4.10;;;;;;;;;;4966811;28;20599;-74
2022/11/04 11:30:33;;;;;;;9.02;4.03;;;;;;;;;;4968242;28;20099;-73
2022/11/04 11:33:26;;;;;;;14.43;5.03;;;;;;;;;;4954952;28;20015;-75
2022/11/04 11:35:56;;;;;;;12.15;4.32;;;;;;;;;;4970915;28;20585;-75
2022/11/04 11:38:24;;;;;;;19.02;5.13;;;;;;;;;;4967152;28;20125;-75
2022/11/04 11:40:53;;;;;;;17.30;4.90;;;;;;;;;;4970206;28;20153;-74
2022/11/04 11:43:22;;;;;;;10.32;4.15;;;;;;;;;;4966562;28;20030;-79
2022/11/04 11:45:49;;;;;;;14.60;5.05;;;;;;;;;;4969367;28;20102;-75
2022/11/04 11:48:39;;;;;;;12.43;4.28;;;;;;;;;;4969417;28;20115;-74
2022/11/04 11:51:05;;;;;;;13.25;4.47;;;;;;;;;;4977411;28;20042;-75
2022/11/04 11:53:34;;;;;;;10.77;4.05;;;;;;;;;;4968326;28;20247;-76
2022/11/04 11:56:09;;;;;;;9.48;3.97;;;;;;;;;;4961720;28;20466;-76
2022/11/04 11:58:39;;;;;;;11.20;3.83;;;;;;;;;;4959381;28;20035;-75
2022/11/04 12:01:16;;;;;;;13.55;4.20;;;;;;;;;;4961465;28;20023;-76
2022/11/04 12:03:46;;;;;;;11.88;3.88;;;;;;;;;;4969876;28;20038;-77
2022/11/04 12:06:16;;;;;;;10.18;4.97;;;;;;;;;;4964373;28;20073;-75
2022/11/04 12:08:57;;;;;;;11.75;3.88;;;;;;;;;;4972181;28;20504;-75
2022/11/04 12:11:44;;;;;;;11.45;4.00;;;;;;;;;;4961705;28;20030;-76
2022/11/04 12:14:16;;;;;;;11.63;4.30;;;;;;;;;;4956936;28;20245;-76
2022/11/04 12:17:00;;;;;;;6.72;3.50;;;;;;;;;;4963569;28;20079;-76
2022/11/04 12:19:33;;;;;;;11.68;4.22;;;;;;;;;;4961625;28;20027;-76
2022/11/04 12:22:03;;;;;;;13.77;4.72;;;;;;;;;;4963658;28;20097;-76
2022/11/04 12:24:29;;;;;;;9.65;4.00;;;;;;;;;;4956312;28;20758;-75
2022/11/04 12:27:22;;;;;;;13.05;4.10;;;;;;;;;;4963781;28;20638;-75
2022/11/04 12:30:16;;;;;;;9.32;3.95;;;;;;;;;;4964820;28;20658;-75
2022/11/04 12:33:01;;;;;;;16.52;5.00;;;;;;;;;;4969470;28;20541;-75
2022/11/04 12:35:36;;;;;;;9.85;4.03;;;;;;;;;;4966606;28;20129;-75
2022/11/04 12:38:21;;;;;;;9.95;3.65;;;;;;;;;;4958007;28;20136;-77
2022/11/04 12:40:56;;;;;;;11.27;4.40;;;;;;;;;;4963388;28;20110;-75
2022/11/04 12:43:22;;;;;;;12.95;4.45;;;;;;;;;;4964608;28;20026;-82
2022/11/04 12:45:54;;;;;;;9.82;4.25;;;;;;;;;;4974807;28;20056;-79
2022/11/04 12:48:20;;;;;;;10.27;4.97;;;;;;;;;;4962334;28;20038;-76
2022/11/04 12:51:07;;;;;;;8.52;4.68;;;;;;;;;;4962090;28;20162;-82
2022/11/04 12:53:48;;;;;;;14.60;4.90;;;;;;;;;;4972045;28;20941;-77
2022/11/04 12:56:17;;;;;;;7.68;4.40;;;;;;;;;;4953347;28;20455;-75
2022/11/04 12:58:43;;;;;;;11.98;4.28;;;;;;;;;;4971188;28;20437;-86
2022/11/04 13:01:21;;;;;;;12.85;5.30;;;;;;;;;;4978556;28;20332;-76
2022/11/04 13:03:57;;;;;;;13.70;4.68;;;;;;;;;;4964809;28;20038;-80
2022/11/04 13:06:26;;;;;;;12.10;5.80;;;;;;;;;;4960789;28;20038;-83
2022/11/04 13:08:59;;;;;;;14.20;5.65;;;;;;;;;;4969274;28;20026;-86
2022/11/04 13:11:31;;;;;;;10.05;4.68;;;;;;;;;;4962273;28;20479;-80
2022/11/04 13:14:11;;;;;;;15.63;5.13;;;;;;;;;;4970925;28;20023;-77
2022/11/04 13:16:39;;;;;;;9.40;4.55;;;;;;;;;;4961768;28;20135;-84
2022/11/04 13:19:12;;;;;;;14.00;5.45;;;;;;;;;;4965777;28;20031;-76
2022/11/04 13:21:39;;;;;;;14.00;5.38;;;;;;;;;;4968045;28;20014;-82
2022/11/04 13:24:05;;;;;;;13.70;5.22;;;;;;;;;;4967110;28;20026;-75
2022/11/04 13:26:31;;;;;;;11.50;6.03;;;;;;;;;;4967881;28;20347;-77
2022/11/04 13:29:06;;;;;;;10.82;6.05;;;;;;;;;;4966460;28;20111;-80
2022/11/04 13:31:44;;;;;;;12.98;5.35;;;;;;;;;;4965037;28;20035;-75
2022/11/04 13:34:18;;;;;;;13.65;6.00;;;;;;;;;;4976060;28;20052;-82
2022/11/04 13:36:47;;;;;;;12.45;5.72;;;;;;;;;;4961548;28;20101;-83
2022/11/04 13:39:18;;;;;;;15.13;6.45;;;;;;;;;;4966650;28;20057;-80
2022/11/04 13:41:44;;;;;;;10.57;6.43;;;;;;;;;;4961065;28;20030;-80
2022/11/04 13:44:27;;;;;;;12.55;6.45;;;;;;;;;;4962796;28;20035;-79
2022/11/04 13:46:55;;;;;;;11.82;5.97;;;;;;;;;;4956642;28;20037;-80
2022/11/04 13:49:29;;;;;;;10.10;6.07;;;;;;;;;;4962214;28;20033;-77
2022/11/04 13:52:07;;;;;;;12.35;6.45;;;;;;;;;;4959815;28;20026;-87
2022/11/04 13:54:40;;;;;;;12.80;5.75;;;;;;;;;;4967258;28;20042;-79
2022/11/04 13:57:34;;;;;;;12.38;6.97;;;;;;;;;;4959421;28;20027;-82
2022/11/04 14:00:17;;;;;;;12.95;6.70;;;;;;;;;;4969675;28;20518;-81
2022/11/04 14:02:44;;;;;;;12.05;6.93;;;;;;;;;;4962681;28;20109;-90
2022/11/04 14:05:29;;;;;;;10.52;6.47;;;;;;;;;;4956707;28;20692;-77
2022/11/04 14:08:01;;;;;;;15.23;6.50;;;;;;;;;;4954415;28;20058;-76
2022/11/04 14:10:46;;;;;;;12.35;6.40;;;;;;;;;;4958434;28;20045;-77
2022/11/04 14:13:32;;;;;;;15.73;6.20;;;;;;;;;;4956334;28;20038;-77
2022/11/04 14:16:17;;;;;;;15.93;6.45;;;;;;;;;;4959296;28;20027;-78
2022/11/04 14:18:47;;;;;;;14.88;6.85;;;;;;;;;;4960552;28;20031;-75
2022/11/04 14:21:18;;;;;;;13.93;6.35;;;;;;;;;;4964834;28;20153;-82
2022/11/04 14:23:59;;;;;;;18.33;6.95;;;;;;;;;;4962502;28;20046;-75
2022/11/04 14:26:28;;;;;;;12.68;6.88;;;;;;;;;;4967257;28;20530;-75
2022/11/04 14:29:07;;;;;;;15.63;7.25;;;;;;;;;;4962840;28;20054;-75
2022/11/04 14:31:38;;;;;;;12.95;5.90;;;;;;;;;;4952301;28;20034;-76
2022/11/04 14:34:04;;;;;;;15.30;6.43;;;;;;;;;;4959735;28;20093;-83
2022/11/04 14:36:31;;;;;;;14.57;6.20;;;;;;;;;;4960992;28;20042;-75
2022/11/04 14:39:17;;;;;;;8.85;5.35;;;;;;;;;;4961904;28;20055;-76
2022/11/04 14:42:00;;;;;;;8.32;5.68;;;;;;;;;;4956948;28;20042;-76
2022/11/04 14:44:35;;;;;;;14.25;6.68;;;;;;;;;;4956749;28;20035;-80
2022/11/04 14:47:16;;;;;;;19.85;6.85;;;;;;;;;;4956995;28;20031;-76
2022/11/04 14:49:45;;;;;;;16.45;6.78;;;;;;;;;;4957036;28;20039;-74
2022/11/04 14:52:21;;;;;;;18.38;7.35;;;;;;;;;;4978572;28;20031;-91
2022/11/04 14:54:47;;;;;;;18.23;7.80;;;;;;;;;;4962731;28;20027;-74
2022/11/04 14:57:14;;;;;;;19.05;6.75;;;;;;;;;;4954505;28;20034;-84
2022/11/04 14:59:40;;;;;;;13.32;5.90;;;;;;;;;;4956281;28;20175;-76
2022/11/04 15:02:13;;;;;;;14.68;6.70;;;;;;;;;;4957484;28;20113;-78
2022/11/04 15:04:44;;;;;;;13.15;7.13;;;;;;;;;;4952873;28;20594;-78
2022/11/04 15:07:21;;;;;;;12.40;6.78;;;;;;;;;;4963420;28;20027;-74
2022/11/04 15:09:49;;;;;;;10.50;6.53;;;;;;;;;;4958839;28;20467;-83
2022/11/04 15:15:02;;;;;;;13.68;7.03;;;;;;;;;;4953758;28;20041;-76
2022/11/04 15:17:31;;;;;;;16.85;7.03;;;;;;;;;;4955058;28;20054;-73
2022/11/04 15:19:59;;;;;;;17.30;6.40;;;;;;;;;;4955101;28;20034;-76
2022/11/04 15:22:26;;;;;;;10.88;6.53;;;;;;;;;;4955159;28;20072;-78
2022/11/04 15:24:52;;;;;;;12.80;7.63;;;;;;;;;;4961644;28;20027;-77
2022/11/04 15:27:23;;;;;;;13.98;5.85;;;;;;;;;;4963180;28;20432;-88
2022/11/04 15:29:53;;;;;;;19.75;6.63;;;;;;;;;;4959026;28;20500;-88
2022/11/04 15:32:19;;;;;;;16.38;6.25;;;;;;;;;;4964859;28;20057;-77